createdAt,value
2023-03-08T00:01:22.741Z,98561.97
2023-03-08T00:03:55.120Z,98555.13
2023-03-08T00:06:23.264Z,98550.89
2023-03-08T00:08:58.567Z,98547.90
2023-03-08T00:11:29.337Z,98540.66
2023-03-08T00:13:57.897Z,98537.81
2023-03-08T00:16:25.858Z,98534.04
2023-03-08T00:18:53.897Z,98538.56
2023-03-08T00:21:22.125Z,98529.86
2023-03-08T00:23:52.966Z,98530.67
2023-03-08T00:26:21.053Z,98533.78
2023-03-08T00:28:49.383Z,98525.92
2023-03-08T00:31:17.639Z,98523.69
2023-03-08T00:33:46.732Z,98521.45
2023-03-08T00:36:17.751Z,98513.02
2023-03-08T00:38:47.381Z,98507.61
2023-03-08T00:41:15.490Z,98504.29
2023-03-08T00:43:43.738Z,98499.02
2023-03-08T00:46:12.270Z,98495.74
2023-03-08T00:48:40.809Z,98492.95
2023-03-08T00:51:10.266Z,98498.52
2023-03-08T00:53:38.346Z,98487.80
2023-03-08T00:56:06.610Z,98489.15
2023-03-08T00:58:34.592Z,98487.33
2023-03-08T01:01:04.567Z,98483.58
2023-03-08T01:03:33.595Z,98478.73
2023-03-08T01:06:07.350Z,98472.14
2023-03-08T01:08:35.584Z,98465.73
2023-03-08T01:11:03.558Z,98464.77
2023-03-08T01:13:33.530Z,98459.39
2023-03-08T01:16:02.228Z,98460.86
2023-03-08T01:18:30.335Z,98460.21
2023-03-08T01:20:59.389Z,98456.20
2023-03-08T01:23:27.516Z,98464.40
2023-03-08T01:26:03.210Z,98461.11
2023-03-08T01:28:31.854Z,98455.52
2023-03-08T01:31:05.737Z,98451.02
2023-03-08T01:33:35.727Z,98455.55
2023-03-08T01:36:08.231Z,98455.34
2023-03-08T01:38:36.816Z,98450.69
2023-03-08T01:41:05.790Z,98445.55
2023-03-08T01:43:36.426Z,98443.20
2023-03-08T01:46:06.462Z,98445.63
2023-03-08T01:48:43.938Z,98442.42
2023-03-08T01:51:21.271Z,98441.30
2023-03-08T01:53:49.213Z,98440.48
2023-03-08T01:56:17.889Z,98439.73
2023-03-08T01:58:46.782Z,98438.95
2023-03-08T02:01:15.345Z,98440.29
2023-03-08T02:03:44.237Z,98447.80
2023-03-08T02:06:12.930Z,98439.43
2023-03-08T02:08:42.461Z,98440.80
2023-03-08T02:11:10.477Z,98432.61
2023-03-08T02:13:40.028Z,98436.09
2023-03-08T02:16:10.790Z,98440.96
2023-03-08T02:18:56.565Z,98439.15
2023-03-08T02:21:26.391Z,98435.23
2023-03-08T02:23:54.712Z,98432.78
2023-03-08T02:26:26.839Z,98433.80
2023-03-08T02:28:54.812Z,98430.44
2023-03-08T02:31:22.702Z,98430.41
2023-03-08T02:33:50.973Z,98424.39
2023-03-08T02:36:19.195Z,98421.48
2023-03-08T02:38:48.043Z,98417.73
2023-03-08T02:41:16.087Z,98417.21
2023-03-08T02:43:44.808Z,98423.73
2023-03-08T02:46:13.589Z,98421.37
2023-03-08T02:48:41.568Z,98426.11
2023-03-08T02:51:09.627Z,98422.39
2023-03-08T02:53:38.516Z,98422.92
2023-03-08T02:56:07.025Z,98417.29
2023-03-08T02:58:37.115Z,98417.36
2023-03-08T03:01:11.161Z,98415.65
2023-03-08T03:03:40.576Z,98416.23
2023-03-08T03:06:19.419Z,98415.02
2023-03-08T03:08:49.554Z,98412.00
2023-03-08T03:11:22.202Z,98413.07
2023-03-08T03:13:59.091Z,98409.52
2023-03-08T03:16:30.650Z,98411.30
2023-03-08T03:18:58.641Z,98407.93
2023-03-08T03:21:27.239Z,98409.67
2023-03-08T03:23:55.906Z,98407.35
2023-03-08T03:26:29.079Z,98403.61
2023-03-08T03:28:57.928Z,98407.67
2023-03-08T03:31:27.624Z,98402.07
2023-03-08T03:33:55.861Z,98394.47
2023-03-08T03:36:26.190Z,98388.84
2023-03-08T03:38:54.719Z,98380.54
2023-03-08T03:41:23.267Z,98372.59
2023-03-08T03:43:56.187Z,98377.73
2023-03-08T03:46:27.193Z,98384.95
2023-03-08T03:48:56.190Z,98378.22
2023-03-08T03:51:24.560Z,98374.32
2023-03-08T03:54:00.213Z,98373.41
2023-03-08T03:56:29.290Z,98374.29
2023-03-08T03:59:00.017Z,98374.23
2023-03-08T04:01:29.663Z,98369.82
2023-03-08T04:04:05.648Z,98364.34
2023-03-08T04:06:35.447Z,98353.95
2023-03-08T04:09:13.224Z,98349.36
2023-03-08T04:11:42.470Z,98343.16
2023-03-08T04:14:14.824Z,98341.90
2023-03-08T04:16:44.383Z,98349.16
2023-03-08T04:19:22.548Z,98342.79
2023-03-08T04:21:53.203Z,98336.95
2023-03-08T04:24:23.897Z,98336.25
2023-03-08T04:26:55.041Z,98331.48
2023-03-08T04:29:24.318Z,98333.07
2023-03-08T04:31:55.824Z,98341.54
2023-03-08T04:34:24.157Z,98341.89
2023-03-08T04:36:54.343Z,98345.39
2023-03-08T04:39:22.561Z,98347.85
2023-03-08T04:41:50.825Z,98347.29
2023-03-08T04:44:31.202Z,98346.77
2023-03-08T04:47:02.064Z,98342.73
2023-03-08T04:49:41.375Z,98343.65
2023-03-08T04:52:09.384Z,98339.27
2023-03-08T04:54:39.404Z,98335.40
2023-03-08T04:57:15.975Z,98335.77
2023-03-08T04:59:44.733Z,98336.33
2023-03-08T05:02:13.141Z,98336.71
2023-03-08T05:04:41.568Z,98326.61
2023-03-08T05:07:11.634Z,98321.44
2023-03-08T05:09:39.725Z,98316.98
2023-03-08T05:12:08.915Z,98311.27
2023-03-08T05:14:47.722Z,98311.89
2023-03-08T05:17:16.071Z,98319.63
2023-03-08T05:19:49.230Z,98317.79
2023-03-08T05:22:19.657Z,98320.77
2023-03-08T05:24:51.123Z,98324.50
2023-03-08T05:27:19.488Z,98323.27
2023-03-08T05:29:48.076Z,98324.15
2023-03-08T05:32:22.888Z,98323.28
2023-03-08T05:34:54.846Z,98324.98
2023-03-08T05:37:30.108Z,98319.98
2023-03-08T05:40:01.878Z,98319.33
2023-03-08T05:42:33.072Z,98318.34
2023-03-08T05:45:03.013Z,98312.20
2023-03-08T05:47:35.216Z,98306.60
2023-03-08T05:50:03.598Z,98302.27
2023-03-08T05:52:34.765Z,98297.91
2023-03-08T05:55:05.953Z,98298.67
2023-03-08T05:57:34.721Z,98294.82
2023-03-08T06:00:04.810Z,98294.96
2023-03-08T06:02:44.572Z,98296.01
2023-03-08T06:05:13.590Z,98287.84
2023-03-08T06:07:44.490Z,98284.85
2023-03-08T06:10:14.193Z,98285.01
2023-03-08T06:12:42.544Z,98276.13
2023-03-08T06:15:13.446Z,98272.20
2023-03-08T06:17:41.790Z,98269.47
2023-03-08T06:20:11.093Z,98271.47
2023-03-08T06:22:40.980Z,98269.39
2023-03-08T06:25:11.496Z,98268.63
2023-03-08T06:29:33.038Z,98270.89
2023-03-08T06:32:03.748Z,98276.63
2023-03-08T06:34:32.570Z,98280.23
2023-03-08T06:37:02.313Z,98285.05
2023-03-08T06:39:31.969Z,98281.13
2023-03-08T06:42:03.430Z,98279.98
2023-03-08T06:44:32.986Z,98279.00
2023-03-08T06:47:00.906Z,98285.63
2023-03-08T06:49:29.089Z,98290.31
2023-03-08T06:51:57.382Z,98291.00
2023-03-08T06:54:25.441Z,98288.30
2023-03-08T06:56:53.637Z,98287.96
2023-03-08T06:59:21.650Z,98279.08
2023-03-08T07:01:49.531Z,98277.33
2023-03-08T07:04:18.452Z,98270.12
2023-03-08T07:06:51.864Z,98264.98
2023-03-08T07:09:20.048Z,98262.23
2023-03-08T07:11:48.023Z,98259.66
2023-03-08T07:14:16.352Z,98252.63
2023-03-08T07:16:45.410Z,98255.05
2023-03-08T07:19:13.425Z,98258.36
2023-03-08T07:21:44.476Z,98261.82
2023-03-08T07:24:12.656Z,98254.05
2023-03-08T07:26:40.628Z,98250.44
2023-03-08T07:29:09.005Z,98244.49
2023-03-08T07:31:38.043Z,98242.92
2023-03-08T07:34:06.430Z,98242.81
2023-03-08T07:36:36.391Z,98250.54
2023-03-08T07:39:04.560Z,98255.23
2023-03-08T07:41:34.808Z,98255.11
2023-03-08T07:44:03.654Z,98255.27
2023-03-08T07:46:36.740Z,98254.52
2023-03-08T07:49:10.659Z,98249.36
2023-03-08T07:51:38.753Z,98245.72
2023-03-08T07:54:07.755Z,98241.73
2023-03-08T07:56:35.807Z,98232.79
2023-03-08T07:59:04.463Z,98232.36
2023-03-08T08:01:33.171Z,98228.15
2023-03-08T08:04:01.163Z,98226.52
2023-03-08T08:06:30.498Z,98226.22
2023-03-08T08:08:58.641Z,98224.82
2023-03-08T08:11:26.689Z,98226.52
2023-03-08T08:13:56.300Z,98228.95
2023-03-08T08:16:24.268Z,98225.60
2023-03-08T08:18:54.711Z,98225.23
2023-03-08T08:21:24.528Z,98224.99
2023-03-08T08:23:57.779Z,98225.48
2023-03-08T08:26:26.158Z,98225.52
2023-03-08T08:28:54.225Z,98223.50
2023-03-08T08:31:24.080Z,98223.41
2023-03-08T08:33:52.602Z,98217.09
2023-03-08T08:36:21.282Z,98219.90
2023-03-08T08:38:50.016Z,98222.55
2023-03-08T08:41:19.052Z,98221.16
2023-03-08T08:43:47.327Z,98219.52
2023-03-08T08:46:15.946Z,98213.54
2023-03-08T08:48:43.839Z,98218.59
2023-03-08T08:51:12.577Z,98218.14
2023-03-08T08:53:40.668Z,98212.54
2023-03-08T08:56:25.603Z,98207.78
2023-03-08T08:58:59.606Z,98207.86
2023-03-08T09:01:30.137Z,98201.67
2023-03-08T09:04:17.890Z,98202.25
2023-03-08T09:06:47.430Z,98205.66
2023-03-08T09:09:16.645Z,98203.75
2023-03-08T09:11:55.104Z,98200.05
2023-03-08T09:14:25.701Z,98201.00
2023-03-08T09:16:54.149Z,98196.05
2023-03-08T09:19:22.227Z,98198.88
2023-03-08T09:21:50.204Z,98197.25
2023-03-08T09:24:18.151Z,98197.77
2023-03-08T09:26:49.183Z,98196.70
2023-03-08T09:29:16.996Z,98194.55
2023-03-08T09:31:45.445Z,98191.41
2023-03-08T09:34:16.065Z,98189.88
2023-03-08T09:36:44.134Z,98195.65
2023-03-08T09:39:13.827Z,98200.79
2023-03-08T09:41:48.670Z,98202.46
2023-03-08T09:44:44.068Z,98198.84
2023-03-08T09:47:15.251Z,98203.01
2023-03-08T09:49:43.311Z,98202.67
2023-03-08T09:52:40.663Z,98207.88
2023-03-08T09:55:30.219Z,98224.23
2023-03-08T09:58:40.239Z,98245.52
2023-03-08T10:01:20.334Z,19649.33
2023-03-08T10:04:20.344Z,-1.00
2023-03-08T10:07:12.972Z,-1.00
2023-03-08T10:09:47.962Z,-1.00
2023-03-08T10:12:22.106Z,-1.00
2023-03-08T10:14:52.587Z,-1.00
2023-03-08T10:17:26.708Z,-1.00
2023-03-08T10:19:57.870Z,-1.00
2023-03-08T10:22:32.512Z,-1.00
2023-03-08T10:25:21.959Z,-1.00
2023-03-08T10:27:52.487Z,-1.00
2023-03-08T10:30:22.536Z,-1.00
2023-03-08T10:32:51.655Z,-1.00
2023-03-08T10:35:30.951Z,-1.00
2023-03-08T10:38:00.789Z,-1.00
2023-03-08T10:40:29.166Z,-1.00
2023-03-08T10:43:01.146Z,-1.00
2023-03-08T10:45:29.722Z,-1.00
2023-03-08T10:48:05.466Z,-1.00
2023-03-08T10:50:37.003Z,-1.00
2023-03-08T10:53:19.216Z,-1.00
2023-03-08T10:55:53.039Z,-1.00
2023-03-08T10:58:41.762Z,-1.00
2023-03-08T11:01:31.025Z,-1.00
2023-03-08T11:04:04.609Z,-1.00
2023-03-08T11:06:35.391Z,-1.00
2023-03-08T11:09:04.762Z,-1.00
2023-03-08T11:11:41.286Z,-1.00
2023-03-08T11:14:10.953Z,-1.00
2023-03-08T11:17:17.910Z,-1.00
2023-03-08T11:19:54.014Z,-1.00
2023-03-08T11:22:48.553Z,-1.00
2023-03-08T11:25:25.288Z,-1.00
2023-03-08T11:28:00.578Z,-1.00
2023-03-08T11:30:55.132Z,-1.00
2023-03-08T11:33:30.577Z,-1.00
2023-03-08T11:36:04.826Z,-1.00
2023-03-08T11:38:33.593Z,-1.00
2023-03-08T11:41:16.900Z,-1.00
2023-03-08T11:43:53.308Z,-1.00
2023-03-08T11:46:38.990Z,-1.00
2023-03-08T11:49:26.541Z,-1.00
2023-03-08T11:52:08.079Z,-1.00
2023-03-08T11:54:38.908Z,-1.00
2023-03-08T11:57:12.238Z,-1.00
2023-03-08T12:00:06.847Z,-1.00
2023-03-08T12:02:45.114Z,-1.00
2023-03-08T12:05:17.188Z,-1.00
2023-03-08T12:07:48.180Z,-1.00
2023-03-08T12:10:20.711Z,-1.00
2023-03-08T12:13:00.111Z,-1.00
2023-03-08T12:15:40.346Z,-1.00
2023-03-08T12:18:29.999Z,-1.00
2023-03-08T12:21:30.037Z,-1.00
2023-03-08T12:24:22.993Z,-1.00
2023-03-08T12:26:59.106Z,-1.00
2023-03-08T12:29:34.747Z,-1.00
2023-03-08T12:32:03.092Z,-1.00
2023-03-08T12:34:39.769Z,-1.00
2023-03-08T12:37:25.370Z,-1.00
2023-03-08T12:39:58.898Z,-1.00
2023-03-08T12:42:32.469Z,-1.00
2023-03-08T12:45:07.710Z,-1.00
2023-03-08T12:47:37.449Z,-1.00
2023-03-08T12:50:11.682Z,-1.00
2023-03-08T12:52:39.608Z,-1.00
2023-03-08T12:55:26.978Z,-1.00
2023-03-08T12:57:56.703Z,-1.00
2023-03-08T13:00:57.917Z,-1.00
2023-03-08T13:03:41.567Z,-1.00
2023-03-08T13:06:51.630Z,-1.00
2023-03-08T13:09:36.243Z,-1.00
2023-03-08T13:12:05.469Z,-1.00
2023-03-08T13:15:02.295Z,-1.00
2023-03-08T13:17:30.472Z,-1.00
2023-03-08T13:20:24.413Z,-1.00
2023-03-08T13:23:03.927Z,-1.00
2023-03-08T13:25:35.387Z,-1.00
2023-03-08T13:28:11.285Z,-1.00
2023-03-08T13:30:47.169Z,-1.00
2023-03-08T13:33:21.125Z,-1.00
2023-03-08T13:36:00.567Z,-1.00
2023-03-08T13:38:34.633Z,-1.00
2023-03-08T13:41:02.864Z,-1.00
2023-03-08T13:43:33.291Z,-1.00
2023-03-08T13:46:03.344Z,-1.00
2023-03-08T13:48:34.878Z,-1.00
2023-03-08T13:51:03.056Z,-1.00
2023-03-08T13:53:35.814Z,-1.00
2023-03-08T13:56:05.232Z,-1.00
2023-03-08T13:58:34.414Z,-1.00
2023-03-08T14:01:14.310Z,-1.00
2023-03-08T14:03:43.709Z,-1.00
2023-03-08T14:06:22.255Z,-1.00
2023-03-08T14:08:50.996Z,-1.00
2023-03-08T14:11:23.376Z,-1.00
2023-03-08T14:13:56.938Z,-1.00
2023-03-08T14:16:29.112Z,-1.00
2023-03-08T14:18:58.370Z,-1.00
2023-03-08T14:21:30.276Z,-1.00
2023-03-08T14:24:02.277Z,-1.00
2023-03-08T14:26:35.011Z,-1.00
2023-03-08T14:29:03.865Z,-1.00
2023-03-08T14:31:32.116Z,-1.00
2023-03-08T14:34:03.705Z,-1.00
2023-03-08T14:36:32.115Z,-1.00
2023-03-08T14:39:01.285Z,-1.00
2023-03-08T14:41:32.200Z,-1.00
2023-03-08T14:44:01.222Z,-1.00
2023-03-08T14:46:30.301Z,-1.00
2023-03-08T14:49:03.014Z,-1.00
2023-03-08T14:51:41.884Z,-1.00
2023-03-08T14:54:31.491Z,-1.00
2023-03-08T14:57:15.906Z,-1.00
2023-03-08T14:59:44.156Z,-1.00
2023-03-08T15:02:13.102Z,-1.00
2023-03-08T15:04:41.875Z,-1.00
2023-03-08T15:07:20.657Z,-1.00
2023-03-08T15:09:49.576Z,-1.00
2023-03-08T15:12:18.739Z,-1.00
2023-03-08T15:14:46.715Z,-1.00
2023-03-08T15:17:18.030Z,-1.00
2023-03-08T15:19:46.115Z,-1.00
2023-03-08T15:22:13.972Z,-1.00
2023-03-08T15:24:43.177Z,-1.00
2023-03-08T15:27:15.612Z,-1.00
2023-03-08T15:29:43.847Z,-1.00
2023-03-08T15:32:11.990Z,-1.00
2023-03-08T15:34:40.949Z,-1.00
2023-03-08T15:37:13.730Z,-1.00
2023-03-08T15:39:41.694Z,-1.00
2023-03-08T15:42:09.645Z,-1.00
2023-03-08T15:44:37.584Z,-1.00
2023-03-08T15:47:06.472Z,-1.00
2023-03-08T15:49:34.462Z,-1.00
2023-03-08T15:52:02.575Z,-1.00
2023-03-08T15:54:31.866Z,-1.00
2023-03-08T15:57:00.279Z,-1.00
2023-03-08T15:59:28.183Z,-1.00
2023-03-08T16:01:56.089Z,-1.00
2023-03-08T16:04:24.098Z,-1.00
2023-03-08T16:06:53.329Z,-1.00
2023-03-08T16:09:23.067Z,-1.00
2023-03-08T16:11:52.175Z,-1.00
2023-03-08T16:14:20.584Z,-1.00
2023-03-08T16:16:48.672Z,-1.00
2023-03-08T16:19:17.898Z,-1.00
2023-03-08T16:21:45.989Z,-1.00
2023-03-08T16:24:14.033Z,-1.00
2023-03-08T16:26:41.977Z,-1.00
2023-03-08T16:29:10.225Z,-1.00
2023-03-08T16:31:38.934Z,-1.00
2023-03-08T16:34:06.996Z,-1.00
2023-03-08T16:36:35.052Z,-1.00
2023-03-08T16:39:05.633Z,-1.00
2023-03-08T16:41:34.943Z,-1.00
2023-03-08T16:44:04.055Z,-1.00
2023-03-08T16:46:33.496Z,-1.00
2023-03-08T16:49:01.364Z,-1.00
2023-03-08T16:51:31.209Z,-1.00
2023-03-08T16:53:59.088Z,-1.00
2023-03-08T16:56:28.320Z,-1.00
2023-03-08T16:58:58.965Z,-1.00
2023-03-08T17:01:26.985Z,-1.00
2023-03-08T17:03:56.067Z,-1.00
2023-03-08T17:06:25.849Z,-1.00
2023-03-08T17:08:57.575Z,-1.00
2023-03-08T17:11:27.763Z,-1.00
2023-03-08T17:14:01.234Z,-1.00
2023-03-08T17:16:35.638Z,-1.00
2023-03-08T17:19:05.042Z,-1.00
2023-03-08T17:21:38.207Z,-1.00
2023-03-08T17:24:13.080Z,-1.00
2023-03-08T17:26:42.925Z,-1.00
2023-03-08T17:29:10.967Z,-1.00
2023-03-08T17:31:41.064Z,-1.00
2023-03-08T17:34:09.150Z,-1.00
2023-03-08T17:36:37.136Z,-1.00
2023-03-08T17:39:07.149Z,-1.00
2023-03-08T17:41:38.663Z,-1.00
2023-03-08T17:44:06.981Z,-1.00
2023-03-08T17:46:35.036Z,-1.00
2023-03-08T17:49:03.073Z,-1.00
2023-03-08T17:51:31.690Z,-1.00
2023-03-08T17:54:01.057Z,-1.00
2023-03-08T17:56:31.144Z,-1.00
2023-03-08T17:59:02.941Z,-1.00
2023-03-08T18:01:31.227Z,-1.00
2023-03-08T18:03:59.495Z,-1.00
2023-03-08T18:06:27.401Z,-1.00
2023-03-08T18:09:00.042Z,-1.00
2023-03-08T18:11:28.132Z,-1.00
2023-03-08T18:13:56.306Z,-1.00
2023-03-08T18:16:24.339Z,-1.00
2023-03-08T18:19:02.498Z,-1.00
2023-03-08T18:21:31.584Z,-1.00
2023-03-08T18:23:59.639Z,-1.00
2023-03-08T18:26:27.746Z,-1.00
2023-03-08T18:28:56.673Z,-1.00
2023-03-08T18:31:26.373Z,-1.00
2023-03-08T18:33:55.300Z,-1.00
2023-03-08T18:36:26.974Z,-1.00
2023-03-08T18:38:54.906Z,-1.00
2023-03-08T18:41:25.835Z,-1.00
